createdAt,value
2023-04-21T00:01:08.219Z,7.70
2023-04-21T00:03:38.454Z,7.83
2023-04-21T00:06:09.489Z,7.03
2023-04-21T00:08:40.576Z,10.00
2023-04-21T00:11:08.136Z,6.97
2023-04-21T00:13:36.511Z,7.83
2023-04-21T00:16:03.797Z,7.10
2023-04-21T00:18:30.544Z,7.80
2023-04-21T00:20:57.321Z,7.90
2023-04-21T00:23:24.199Z,8.93
2023-04-21T00:25:50.984Z,9.37
2023-04-21T00:28:19.891Z,9.73
2023-04-21T00:30:47.044Z,9.20
2023-04-21T00:33:13.754Z,7.93
2023-04-21T00:35:40.456Z,11.37
2023-04-21T00:38:07.267Z,9.48
2023-04-21T00:40:33.993Z,10.73
2023-04-21T00:43:06.458Z,8.53
2023-04-21T00:45:33.606Z,9.00
2023-04-21T00:48:00.447Z,9.27
2023-04-21T00:50:27.456Z,8.67
2023-04-21T00:52:55.236Z,8.90
2023-04-21T00:55:22.360Z,8.97
2023-04-21T00:57:51.297Z,8.90
2023-04-21T01:00:18.537Z,8.18
2023-04-21T01:02:47.852Z,8.53
2023-04-21T01:05:16.461Z,7.40
2023-04-21T01:07:43.723Z,8.30
2023-04-21T01:10:10.660Z,9.97
2023-04-21T01:12:55.405Z,12.67
2023-04-21T01:15:22.269Z,8.80
2023-04-21T01:17:49.808Z,9.63
2023-04-21T01:20:16.757Z,8.80
2023-04-21T01:22:45.752Z,9.13
2023-04-21T01:25:12.529Z,8.87
2023-04-21T01:27:39.361Z,9.10
2023-04-21T01:30:09.893Z,8.17
2023-04-21T01:32:36.830Z,8.40
2023-04-21T01:35:06.530Z,8.37
2023-04-21T01:37:34.464Z,8.53
2023-04-21T01:40:05.346Z,8.32
2023-04-21T01:42:35.621Z,8.27
2023-04-21T01:45:02.891Z,7.40
2023-04-21T01:47:32.387Z,7.73
2023-04-21T01:49:59.347Z,7.53
2023-04-21T01:52:26.091Z,8.10
2023-04-21T01:54:53.294Z,7.10
2023-04-21T01:57:20.113Z,8.38
2023-04-21T01:59:47.065Z,6.90
2023-04-21T02:02:14.108Z,7.10
2023-04-21T02:04:41.368Z,8.03
2023-04-21T02:07:08.254Z,6.67
2023-04-21T02:09:35.060Z,7.50
2023-04-21T02:12:02.349Z,6.53
2023-04-21T02:14:29.194Z,6.83
2023-04-21T02:16:56.334Z,6.40
2023-04-21T02:19:23.603Z,7.60
2023-04-21T02:21:50.404Z,7.20
2023-04-21T02:24:17.219Z,7.73
2023-04-21T02:26:44.022Z,7.30
2023-04-21T02:29:10.803Z,7.60
2023-04-21T02:31:46.489Z,7.87
2023-04-21T02:34:24.236Z,7.23
2023-04-21T02:36:53.329Z,7.10
2023-04-21T02:39:20.119Z,8.70
2023-04-21T02:41:49.389Z,9.37
2023-04-21T02:44:16.301Z,9.93
2023-04-21T02:46:43.398Z,9.37
2023-04-21T02:49:10.814Z,8.73
2023-04-21T02:51:42.531Z,11.17
2023-04-21T02:54:09.324Z,8.53
2023-04-21T02:56:36.061Z,9.07
2023-04-21T02:59:02.820Z,11.17
2023-04-21T03:01:29.724Z,10.60
2023-04-21T03:03:58.636Z,10.90
2023-04-21T03:06:25.622Z,13.43
2023-04-21T03:08:52.449Z,10.63
2023-04-21T03:11:21.298Z,10.63
2023-04-21T03:13:50.591Z,10.90
2023-04-21T03:16:17.417Z,11.85
2023-04-21T03:18:46.953Z,14.00
2023-04-21T03:21:14.026Z,9.30
2023-04-21T03:23:42.895Z,10.13
2023-04-21T03:26:11.907Z,13.40
2023-04-21T03:28:38.618Z,13.47
2023-04-21T03:31:07.766Z,11.00
2023-04-21T03:33:37.395Z,10.40
2023-04-21T03:36:04.367Z,10.27
2023-04-21T03:38:33.570Z,11.00
2023-04-21T03:41:00.390Z,10.47
2023-04-21T03:43:27.283Z,9.93
2023-04-21T03:45:56.342Z,12.47
2023-04-21T03:48:23.371Z,11.37
2023-04-21T03:50:50.214Z,11.17
2023-04-21T03:53:17.047Z,12.77
2023-04-21T03:55:43.873Z,10.43
2023-04-21T03:58:10.576Z,10.40
2023-04-21T04:00:37.304Z,12.40
2023-04-21T04:03:04.506Z,9.47
2023-04-21T04:05:31.423Z,11.00
2023-04-21T04:07:58.237Z,9.60
2023-04-21T04:10:25.221Z,11.23
2023-04-21T04:12:55.434Z,11.37
2023-04-21T04:15:24.377Z,10.57
2023-04-21T04:17:51.359Z,11.48
2023-04-21T04:20:20.810Z,16.70
2023-04-21T04:22:47.874Z,11.93
2023-04-21T04:25:16.964Z,18.20
2023-04-21T04:27:44.428Z,12.33
2023-04-21T04:30:13.867Z,12.43
2023-04-21T04:32:41.572Z,14.80
2023-04-21T04:35:18.054Z,18.05
2023-04-21T04:37:45.574Z,11.97
2023-04-21T04:40:15.508Z,11.07
2023-04-21T04:42:45.515Z,14.77
2023-04-21T04:45:13.782Z,14.70
2023-04-21T04:47:41.123Z,11.00
2023-04-21T04:50:08.175Z,13.00
2023-04-21T04:52:35.145Z,11.67
2023-04-21T04:55:02.005Z,11.00
2023-04-21T04:57:28.716Z,11.85
2023-04-21T04:59:56.345Z,11.37
2023-04-21T05:02:24.169Z,15.27
2023-04-21T05:04:53.808Z,10.30
2023-04-21T05:07:20.790Z,11.60
2023-04-21T05:09:47.647Z,10.60
2023-04-21T05:12:14.355Z,10.90
2023-04-21T05:14:41.089Z,13.17
2023-04-21T05:17:08.050Z,9.53
2023-04-21T05:19:40.264Z,12.23
2023-04-21T05:22:07.056Z,10.10
2023-04-21T05:24:34.152Z,12.73
2023-04-21T05:27:02.820Z,10.97
2023-04-21T05:29:29.758Z,10.67
2023-04-21T05:31:58.035Z,9.43
2023-04-21T05:34:24.782Z,10.50
2023-04-21T05:36:52.344Z,11.55
2023-04-21T05:39:19.076Z,9.83
2023-04-21T05:41:45.917Z,9.87
2023-04-21T05:44:12.654Z,8.97
2023-04-21T05:46:39.893Z,9.53
2023-04-21T05:49:06.832Z,10.03
2023-04-21T05:51:33.574Z,8.67
2023-04-21T05:54:00.385Z,9.27
2023-04-21T05:56:27.388Z,8.70
2023-04-21T05:58:54.088Z,11.70
2023-04-21T06:01:20.905Z,11.77
2023-04-21T06:03:50.352Z,15.13
2023-04-21T06:06:17.986Z,8.80
2023-04-21T06:08:44.662Z,15.70
2023-04-21T06:11:11.488Z,19.57
2023-04-21T06:13:39.529Z,11.70
2023-04-21T06:16:08.184Z,12.30
2023-04-21T06:18:35.001Z,10.93
2023-04-21T06:21:25.012Z,10.30
2023-04-21T06:23:51.749Z,14.03
2023-04-21T06:26:18.583Z,34.47
2023-04-21T06:28:45.394Z,32.30
2023-04-21T06:31:15.369Z,26.43
2023-04-21T06:33:42.357Z,24.08
2023-04-21T06:36:09.209Z,28.33
2023-04-21T06:38:36.031Z,35.07
2023-04-21T06:41:04.577Z,11.67
2023-04-21T06:43:31.246Z,15.03
2023-04-21T06:45:57.916Z,12.53
2023-04-21T06:48:24.765Z,29.03
2023-04-21T06:50:51.427Z,30.87
2023-04-21T06:53:18.228Z,20.63
2023-04-21T06:55:47.235Z,27.13
2023-04-21T06:58:14.315Z,39.83
2023-04-21T07:00:41.317Z,16.50
2023-04-21T07:03:08.179Z,13.53
2023-04-21T07:05:37.732Z,29.50
2023-04-21T07:08:04.896Z,20.97
2023-04-21T07:10:31.996Z,16.75
2023-04-21T07:12:58.737Z,17.03
2023-04-21T07:15:27.932Z,23.87
2023-04-21T07:17:54.865Z,10.33
2023-04-21T07:20:22.300Z,15.10
2023-04-21T07:22:49.382Z,10.53
2023-04-21T07:25:18.565Z,10.67
2023-04-21T07:27:45.211Z,9.37
2023-04-21T07:30:12.410Z,11.88
2023-04-21T07:32:41.947Z,12.20
2023-04-21T07:35:08.973Z,8.33
2023-04-21T07:37:39.968Z,7.90
2023-04-21T07:40:08.657Z,6.60
2023-04-21T07:42:35.896Z,7.93
2023-04-21T07:45:03.372Z,15.67
2023-04-21T07:47:32.873Z,15.18
2023-04-21T07:50:00.103Z,11.00
2023-04-21T07:52:27.254Z,18.50
2023-04-21T07:54:53.926Z,13.97
2023-04-21T07:57:20.764Z,17.87
2023-04-21T07:59:47.556Z,10.17
2023-04-21T08:02:14.664Z,13.43
2023-04-21T08:04:41.445Z,36.38
2023-04-21T08:07:10.015Z,23.30
2023-04-21T08:09:37.022Z,14.07
2023-04-21T08:12:06.060Z,15.40
2023-04-21T08:14:33.880Z,18.83
2023-04-21T08:17:00.914Z,8.97
2023-04-21T08:19:30.032Z,7.20
2023-04-21T08:21:57.579Z,17.97
2023-04-21T08:24:24.829Z,8.23
2023-04-21T08:26:54.010Z,13.90
2023-04-21T08:29:20.782Z,16.43
2023-04-21T08:31:47.863Z,20.37
2023-04-21T08:34:14.703Z,10.93
2023-04-21T08:36:42.772Z,6.90
2023-04-21T08:39:09.964Z,10.40
2023-04-21T08:41:41.237Z,13.80
2023-04-21T08:44:11.974Z,12.73
2023-04-21T08:46:42.125Z,8.37
2023-04-21T08:49:10.511Z,13.60
2023-04-21T08:51:37.730Z,17.03
2023-04-21T08:54:04.871Z,9.13
2023-04-21T08:56:31.840Z,11.10
2023-04-21T08:58:58.489Z,12.15
2023-04-21T09:01:25.306Z,9.57
2023-04-21T09:03:54.276Z,4.53
2023-04-21T09:06:24.049Z,13.30
2023-04-21T09:08:56.378Z,6.37
2023-04-21T09:11:23.800Z,4.20
2023-04-21T09:13:50.550Z,11.02
2023-04-21T09:16:23.198Z,5.60
2023-04-21T09:18:50.758Z,6.47
2023-04-21T09:21:19.113Z,5.67
2023-04-21T09:23:48.726Z,8.43
2023-04-21T09:26:17.070Z,6.83
2023-04-21T09:28:50.434Z,7.33
2023-04-21T09:31:22.069Z,7.53
2023-04-21T09:36:27.813Z,4.27
2023-04-21T09:39:12.540Z,6.63
2023-04-21T09:41:41.367Z,10.10
2023-04-21T09:44:10.381Z,16.47
2023-04-21T09:46:39.410Z,16.47
2023-04-21T09:49:08.757Z,11.43
2023-04-21T09:54:29.239Z,16.47
2023-04-21T09:57:04.938Z,5.60
2023-04-21T09:59:41.202Z,5.70
2023-04-21T10:02:12.837Z,5.03
2023-04-21T10:04:42.230Z,2.40
2023-04-21T10:07:10.937Z,3.97
2023-04-21T10:09:46.071Z,7.17
2023-04-21T10:12:14.297Z,2.20
2023-04-21T10:14:44.094Z,3.70
2023-04-21T10:17:11.259Z,4.00
2023-04-21T10:19:48.531Z,3.77
2023-04-21T10:22:26.339Z,3.27
2023-04-21T10:24:55.840Z,5.80
2023-04-21T10:27:41.126Z,2.63
2023-04-21T10:30:22.742Z,4.20
2023-04-21T10:33:02.669Z,4.43
2023-04-21T10:36:02.023Z,3.10
2023-04-21T10:38:42.600Z,3.65
2023-04-21T10:41:31.309Z,2.03
2023-04-21T10:43:59.516Z,2.27
2023-04-21T10:46:36.006Z,2.83
2023-04-21T10:49:12.962Z,2.75
2023-04-21T10:51:57.826Z,3.30
2023-04-21T10:54:26.112Z,3.77
2023-04-21T10:56:57.685Z,5.03
2023-04-21T10:59:26.303Z,6.23
2023-04-21T11:01:53.420Z,8.23
2023-04-21T11:04:23.170Z,6.77
2023-04-21T11:07:13.285Z,7.87
2023-04-21T11:09:41.410Z,4.30
2023-04-21T11:12:14.323Z,2.73
2023-04-21T11:14:44.057Z,2.63
2023-04-21T11:17:17.256Z,2.43
2023-04-21T11:19:55.808Z,3.30
2023-04-21T11:22:29.573Z,5.03
2023-04-21T11:24:57.565Z,2.87
2023-04-21T11:27:27.253Z,2.30
2023-04-21T11:29:54.178Z,1.37
2023-04-21T11:32:21.133Z,1.97
2023-04-21T11:34:48.103Z,1.50
2023-04-21T11:37:22.079Z,1.70
2023-04-21T11:39:48.737Z,2.15
2023-04-21T11:42:25.953Z,2.83
2023-04-21T11:44:55.630Z,5.50
2023-04-21T11:47:28.737Z,3.67
2023-04-21T11:49:58.192Z,4.53
2023-04-21T11:52:30.863Z,1.40
2023-04-21T11:55:01.434Z,6.03
2023-04-21T11:57:29.493Z,2.73
2023-04-21T12:00:06.581Z,3.73
2023-04-21T12:02:34.350Z,2.87
2023-04-21T12:05:03.155Z,4.33
2023-04-21T12:07:47.943Z,2.73
2023-04-21T12:10:21.627Z,2.07
2023-04-21T12:12:51.772Z,2.88
2023-04-21T12:15:21.480Z,2.47
2023-04-21T12:17:53.143Z,2.90
2023-04-21T12:20:25.262Z,1.43
2023-04-21T12:22:54.503Z,4.13
2023-04-21T12:25:21.634Z,3.50
2023-04-21T12:28:08.994Z,6.90
2023-04-21T12:30:38.641Z,2.67
2023-04-21T12:33:08.553Z,1.43
2023-04-21T12:35:35.654Z,1.57
2023-04-21T12:38:04.820Z,4.23
2023-04-21T12:40:36.191Z,5.13
2023-04-21T12:43:02.967Z,4.00
2023-04-21T12:45:32.654Z,5.27
2023-04-21T12:48:05.054Z,1.50
2023-04-21T12:50:31.961Z,2.70
2023-04-21T12:52:59.480Z,4.90
2023-04-21T12:55:26.254Z,5.80
2023-04-21T12:57:53.088Z,2.80
2023-04-21T13:00:20.371Z,6.43
2023-04-21T13:02:47.201Z,4.60
2023-04-21T13:05:14.755Z,1.83
2023-04-21T13:07:43.784Z,2.57
2023-04-21T13:10:13.420Z,2.57
2023-04-21T13:12:41.382Z,3.70
2023-04-21T13:15:11.084Z,4.03
2023-04-21T13:17:37.867Z,3.17
2023-04-21T13:20:04.912Z,10.23
2023-04-21T13:22:31.562Z,5.00
2023-04-21T13:25:04.415Z,2.30
2023-04-21T13:27:33.196Z,5.50
2023-04-21T13:29:59.893Z,2.27
2023-04-21T13:32:26.644Z,5.13
2023-04-21T13:34:54.628Z,7.33
2023-04-21T13:37:23.630Z,1.87
2023-04-21T13:39:50.439Z,3.87
2023-04-21T13:42:19.358Z,3.70
2023-04-21T13:44:46.253Z,3.73
2023-04-21T13:47:13.476Z,7.97
2023-04-21T13:49:40.260Z,6.00
2023-04-21T13:52:06.945Z,7.28
2023-04-21T13:54:37.971Z,9.17
2023-04-21T13:57:05.446Z,7.07
2023-04-21T13:59:34.706Z,1.40
2023-04-21T14:02:01.680Z,8.70
2023-04-21T14:04:30.709Z,5.40
2023-04-21T14:06:59.708Z,3.63
2023-04-21T14:09:26.877Z,6.87
2023-04-21T14:11:56.477Z,15.57
2023-04-21T14:14:37.535Z,3.27
2023-04-21T14:17:05.194Z,6.33
2023-04-21T14:19:35.315Z,1.87
2023-04-21T14:22:02.611Z,3.77
2023-04-21T14:24:30.293Z,9.07
2023-04-21T14:26:57.540Z,12.50
2023-04-21T14:29:24.393Z,5.80
2023-04-21T14:31:53.778Z,4.60
2023-04-21T14:34:24.018Z,3.20
2023-04-21T14:36:51.237Z,5.90
2023-04-21T14:39:20.719Z,5.53
2023-04-21T14:41:49.784Z,3.67
2023-04-21T14:44:18.803Z,3.67
2023-04-21T14:46:57.028Z,3.47
2023-04-21T14:49:28.113Z,13.30
2023-04-21T14:51:57.239Z,29.97
2023-04-21T14:54:24.488Z,23.20
2023-04-21T14:56:51.636Z,16.27
2023-04-21T14:59:23.053Z,16.30
2023-04-21T15:01:49.813Z,8.47
2023-04-21T15:04:19.280Z,14.80
2023-04-21T15:06:48.730Z,21.00
2023-04-21T15:09:15.424Z,22.83
2023-04-21T15:11:42.669Z,8.20
2023-04-21T15:14:09.498Z,11.13
2023-04-21T15:16:36.863Z,6.87
2023-04-21T15:19:06.504Z,12.03
2023-04-21T15:21:37.852Z,9.07
2023-04-21T15:24:04.688Z,31.87
2023-04-21T15:26:38.402Z,73.83
2023-04-21T15:29:05.180Z,32.07
2023-04-21T15:31:32.391Z,16.52
2023-04-21T15:34:02.048Z,13.70
2023-04-21T15:36:32.054Z,11.60
2023-04-21T15:38:59.125Z,18.57
2023-04-21T15:41:31.501Z,15.20
2023-04-21T15:44:02.905Z,7.93
2023-04-21T15:46:30.041Z,17.43
2023-04-21T15:48:59.261Z,8.97
2023-04-21T15:51:27.093Z,4.80
2023-04-21T15:53:56.089Z,6.37
2023-04-21T15:56:23.210Z,7.03
2023-04-21T15:58:52.341Z,6.27
2023-04-21T16:01:22.207Z,6.20
2023-04-21T16:03:52.079Z,6.10
2023-04-21T16:06:20.801Z,5.47
2023-04-21T16:08:50.385Z,3.27
2023-04-21T16:11:17.496Z,4.07
2023-04-21T16:13:46.357Z,16.27
2023-04-21T16:16:13.317Z,4.97
2023-04-21T16:18:40.150Z,6.43
2023-04-21T16:21:10.567Z,5.30
2023-04-21T16:23:38.190Z,3.70
2023-04-21T16:26:06.279Z,35.47
2023-04-21T16:28:32.977Z,38.77
2023-04-21T16:31:02.125Z,9.93
2023-04-21T16:33:28.942Z,7.97
2023-04-21T16:35:58.663Z,9.53
2023-04-21T16:38:25.913Z,9.53
2023-04-21T16:40:55.436Z,6.27
2023-04-21T16:43:25.212Z,4.00
2023-04-21T16:45:54.094Z,7.60
2023-04-21T16:48:21.267Z,7.25
2023-04-21T16:50:50.423Z,11.43
2023-04-21T16:53:19.355Z,11.67
2023-04-21T16:55:46.122Z,12.43
2023-04-21T16:58:17.287Z,11.53
2023-04-21T17:00:44.051Z,9.27
2023-04-21T17:03:14.152Z,13.07
2023-04-21T17:05:41.149Z,9.63
2023-04-21T17:08:10.605Z,24.67
2023-04-21T17:10:39.497Z,19.37
2023-04-21T17:13:07.380Z,19.67
2023-04-21T17:15:38.867Z,19.67
2023-04-21T17:18:08.120Z,7.72
2023-04-21T17:20:37.282Z,9.40
2023-04-21T17:23:04.250Z,5.93
2023-04-21T17:25:33.695Z,4.90
2023-04-21T17:28:01.007Z,7.38
2023-04-21T17:30:27.753Z,9.80
2023-04-21T17:33:08.229Z,4.27
2023-04-21T17:35:38.881Z,2.00
2023-04-21T17:38:08.657Z,2.23
2023-04-21T17:40:35.294Z,2.03
2023-04-21T17:43:01.985Z,3.27
2023-04-21T17:45:31.595Z,2.30
2023-04-21T17:47:58.381Z,2.57
2023-04-21T17:50:27.429Z,1.80
2023-04-21T17:52:54.272Z,1.53
2023-04-21T17:55:21.324Z,1.77
2023-04-21T17:57:48.427Z,1.20
2023-04-21T18:00:17.516Z,1.10
2023-04-21T18:02:46.567Z,2.20
2023-04-21T18:05:13.680Z,1.87
2023-04-21T18:07:43.937Z,1.63
2023-04-21T18:10:13.239Z,1.47
2023-04-21T18:12:40.407Z,1.23
2023-04-21T18:15:10.324Z,2.70
2023-04-21T18:17:39.583Z,1.47
2023-04-21T18:20:06.921Z,2.77
2023-04-21T18:22:34.050Z,1.30
2023-04-21T18:25:00.773Z,1.30
2023-04-21T18:27:29.679Z,1.77
2023-04-21T18:29:58.629Z,3.13
2023-04-21T18:32:25.502Z,1.33
2023-04-21T18:34:52.373Z,3.60
2023-04-21T18:37:19.065Z,2.97
2023-04-21T18:39:45.695Z,1.90
2023-04-21T18:42:12.427Z,2.43
2023-04-21T18:44:41.645Z,2.40
2023-04-21T18:47:08.391Z,1.30
2023-04-21T18:49:35.520Z,2.17
2023-04-21T18:52:02.239Z,1.50
2023-04-21T18:54:31.365Z,1.47
2023-04-21T18:57:00.699Z,2.50
2023-04-21T18:59:29.761Z,1.20
2023-04-21T19:01:56.889Z,2.80
2023-04-21T19:04:23.999Z,2.47
2023-04-21T19:06:50.910Z,2.30
2023-04-21T19:09:17.649Z,1.77
2023-04-21T19:11:45.134Z,1.90
2023-04-21T19:14:14.507Z,1.35
2023-04-21T19:16:41.175Z,1.27
2023-04-21T19:19:07.943Z,2.97
2023-04-21T19:21:35.306Z,4.00
2023-04-21T19:24:04.529Z,1.37
2023-04-21T19:26:31.319Z,1.67
2023-04-21T19:28:58.155Z,1.37
2023-04-21T19:31:28.235Z,1.97
2023-04-21T19:33:54.973Z,1.87
2023-04-21T19:36:27.004Z,1.33
2023-04-21T19:38:54.150Z,1.20
2023-04-21T19:41:20.804Z,4.20
2023-04-21T19:43:49.628Z,1.70
2023-04-21T19:46:16.441Z,3.45
2023-04-21T19:48:43.293Z,1.60
2023-04-21T19:51:14.378Z,1.23
2023-04-21T19:53:41.234Z,1.90
2023-04-21T19:56:10.056Z,1.60
2023-04-21T19:58:40.823Z,2.22
2023-04-21T20:01:07.946Z,3.77
2023-04-21T20:03:35.363Z,3.20
2023-04-21T20:06:04.994Z,6.50
2023-04-21T20:08:32.173Z,5.63
2023-04-21T20:11:01.018Z,3.87
2023-04-21T20:13:27.761Z,5.27
2023-04-21T20:15:55.291Z,3.17
2023-04-21T20:18:24.369Z,7.90
2023-04-21T20:20:51.101Z,6.63
2023-04-21T20:23:17.948Z,4.00
2023-04-21T20:25:46.960Z,5.87
2023-04-21T20:28:13.645Z,4.10
2023-04-21T20:30:40.289Z,3.88
2023-04-21T20:33:09.775Z,4.80
2023-04-21T20:35:40.402Z,3.70
2023-04-21T20:38:10.510Z,3.33
2023-04-21T20:40:37.261Z,3.17
2023-04-21T20:43:06.278Z,3.10
2023-04-21T20:45:35.429Z,3.07
2023-04-21T20:48:05.100Z,7.23
2023-04-21T20:50:34.196Z,1.87
2023-04-21T20:53:00.931Z,4.07
2023-04-21T20:55:30.117Z,2.90
2023-04-21T20:57:56.887Z,2.00
2023-04-21T21:00:23.879Z,2.00
2023-04-21T21:02:51.131Z,2.10
2023-04-21T21:05:18.009Z,2.22
2023-04-21T21:07:44.832Z,2.37
2023-04-21T21:10:11.487Z,1.93
2023-04-21T21:12:40.558Z,5.40
2023-04-21T21:15:10.178Z,1.80
2023-04-21T21:17:39.127Z,1.77
2023-04-21T21:20:08.961Z,1.83
2023-04-21T21:22:35.767Z,2.20
2023-04-21T21:25:02.423Z,1.57
2023-04-21T21:27:31.712Z,1.87
2023-04-21T21:29:58.486Z,2.13
2023-04-21T21:32:25.234Z,1.80
2023-04-21T21:34:52.242Z,3.30
2023-04-21T21:37:21.588Z,2.43
2023-04-21T21:39:50.608Z,2.50
2023-04-21T21:42:17.248Z,1.80
2023-04-21T21:44:43.934Z,1.70
2023-04-21T21:47:11.122Z,3.03
2023-04-21T21:49:40.928Z,2.03
2023-04-21T21:52:07.753Z,4.43
2023-04-21T21:54:36.791Z,2.00
2023-04-21T21:57:06.005Z,1.88
2023-04-21T21:59:33.203Z,1.77
2023-04-21T22:02:02.195Z,3.43
2023-04-21T22:04:32.122Z,2.53
2023-04-21T22:06:58.986Z,1.77
2023-04-21T22:09:27.874Z,1.60
2023-04-21T22:11:55.357Z,2.70
2023-04-21T22:14:23.830Z,3.60
2023-04-21T22:16:52.340Z,1.73
2023-04-21T22:19:19.207Z,1.50
2023-04-21T22:21:46.139Z,1.40
2023-04-21T22:24:12.955Z,3.10
2023-04-21T22:26:39.828Z,1.67
2023-04-21T22:29:07.053Z,3.90
2023-04-21T22:31:34.414Z,1.50
2023-04-21T22:34:01.139Z,1.63
2023-04-21T22:36:27.956Z,1.63
2023-04-21T22:38:55.078Z,2.10
2023-04-21T22:41:25.372Z,2.40
2023-04-21T22:43:52.023Z,1.63
2023-04-21T22:46:21.221Z,2.85
2023-04-21T22:48:51.308Z,1.67
2023-04-21T22:51:21.471Z,1.80
2023-04-21T22:53:50.387Z,1.70
2023-04-21T22:56:17.183Z,2.03
2023-04-21T22:58:43.904Z,1.70
2023-04-21T23:01:13.120Z,1.93
2023-04-21T23:03:39.950Z,1.67
2023-04-21T23:06:06.910Z,4.50
2023-04-21T23:08:33.974Z,5.33
2023-04-21T23:11:00.827Z,3.87
2023-04-21T23:13:27.526Z,3.27
2023-04-21T23:15:54.484Z,1.60
2023-04-21T23:18:21.295Z,3.37
2023-04-21T23:20:48.003Z,1.70
2023-04-21T23:23:15.113Z,2.33
2023-04-21T23:25:41.881Z,1.70
2023-04-21T23:28:08.663Z,1.80
2023-04-21T23:30:37.697Z,1.90
2023-04-21T23:33:06.679Z,2.77
2023-04-21T23:35:33.460Z,2.17
2023-04-21T23:38:04.808Z,2.63
2023-04-21T23:40:31.900Z,1.80
2023-04-21T23:43:01.147Z,4.70
2023-04-21T23:45:27.816Z,1.83
2023-04-21T23:47:56.638Z,3.57
2023-04-21T23:50:23.461Z,1.60
2023-04-21T23:52:50.460Z,2.08
2023-04-21T23:55:17.271Z,7.03
2023-04-21T23:57:46.878Z,3.53
